sensor_id;sensor_type;location;lat;lon;timestamp;temperature;humidity
15777;DHT22;7989;51.198;6.676;2022-07-23T00:00:07;18.50;99.90
15777;DHT22;7989;51.198;6.676;2022-07-23T00:02:34;18.50;99.90
15777;DHT22;7989;51.198;6.676;2022-07-23T00:05:01;18.40;99.90
15777;DHT22;7989;51.198;6.676;2022-07-23T00:07:30;18.30;99.90
15777;DHT22;7989;51.198;6.676;2022-07-23T00:09:57;18.30;99.90
15777;DHT22;7989;51.198;6.676;2022-07-23T00:12:23;18.30;99.90
15777;DHT22;7989;51.198;6.676;2022-07-23T00:14:50;18.40;99.90
15777;DHT22;7989;51.198;6.676;2022-07-23T00:17:17;18.50;99.90
15777;DHT22;7989;51.198;6.676;2022-07-23T00:19:44;18.70;99.90
15777;DHT22;7989;51.198;6.676;2022-07-23T00:22:11;18.80;99.90
15777;DHT22;7989;51.198;6.676;2022-07-23T00:24:39;18.80;99.90
15777;DHT22;7989;51.198;6.676;2022-07-23T00:27:06;18.90;99.90
15777;DHT22;7989;51.198;6.676;2022-07-23T00:29:33;18.90;99.90
15777;DHT22;7989;51.198;6.676;2022-07-23T00:31:59;18.90;99.90
15777;DHT22;7989;51.198;6.676;2022-07-23T00:34:26;18.90;99.90
15777;DHT22;7989;51.198;6.676;2022-07-23T00:36:53;18.90;99.90
15777;DHT22;7989;51.198;6.676;2022-07-23T00:39:20;18.90;99.90
15777;DHT22;7989;51.198;6.676;2022-07-23T00:41:50;18.90;99.90
15777;DHT22;7989;51.198;6.676;2022-07-23T00:44:18;18.90;99.90
15777;DHT22;7989;51.198;6.676;2022-07-23T00:46:47;18.90;99.90
15777;DHT22;7989;51.198;6.676;2022-07-23T00:49:14;18.90;99.90
15777;DHT22;7989;51.198;6.676;2022-07-23T00:51:42;18.80;99.90
15777;DHT22;7989;51.198;6.676;2022-07-23T00:54:09;18.80;99.90
15777;DHT22;7989;51.198;6.676;2022-07-23T00:56:37;18.80;99.90
15777;DHT22;7989;51.198;6.676;2022-07-23T00:59:05;18.80;99.90
15777;DHT22;7989;51.198;6.676;2022-07-23T01:01:33;18.80;99.90
15777;DHT22;7989;51.198;6.676;2022-07-23T01:03:59;18.80;99.90
15777;DHT22;7989;51.198;6.676;2022-07-23T01:06:26;18.80;99.90
15777;DHT22;7989;51.198;6.676;2022-07-23T01:08:54;18.80;99.90
15777;DHT22;7989;51.198;6.676;2022-07-23T01:11:22;18.70;99.90
15777;DHT22;7989;51.198;6.676;2022-07-23T01:13:49;18.70;99.90
15777;DHT22;7989;51.198;6.676;2022-07-23T01:16:18;18.70;99.90
15777;DHT22;7989;51.198;6.676;2022-07-23T01:18:44;18.70;99.90
15777;DHT22;7989;51.198;6.676;2022-07-23T01:21:12;18.60;99.90
15777;DHT22;7989;51.198;6.676;2022-07-23T01:23:41;18.60;99.90
15777;DHT22;7989;51.198;6.676;2022-07-23T01:26:08;18.70;99.90
15777;DHT22;7989;51.198;6.676;2022-07-23T01:28:35;18.70;99.90
15777;DHT22;7989;51.198;6.676;2022-07-23T01:31:02;18.60;99.90
15777;DHT22;7989;51.198;6.676;2022-07-23T01:33:29;18.50;99.90
15777;DHT22;7989;51.198;6.676;2022-07-23T01:35:55;18.50;99.90
15777;DHT22;7989;51.198;6.676;2022-07-23T01:38:22;18.60;99.90
15777;DHT22;7989;51.198;6.676;2022-07-23T01:40:50;18.60;99.90
15777;DHT22;7989;51.198;6.676;2022-07-23T01:43:17;18.60;99.90
15777;DHT22;7989;51.198;6.676;2022-07-23T01:45:44;18.60;99.90
15777;DHT22;7989;51.198;6.676;2022-07-23T01:48:11;18.50;99.90
15777;DHT22;7989;51.198;6.676;2022-07-23T01:50:37;18.50;99.90
15777;DHT22;7989;51.198;6.676;2022-07-23T01:53:04;18.50;99.90
15777;DHT22;7989;51.198;6.676;2022-07-23T01:55:31;18.50;99.90
15777;DHT22;7989;51.198;6.676;2022-07-23T01:57:59;18.40;99.90
15777;DHT22;7989;51.198;6.676;2022-07-23T02:00:26;18.40;99.90
15777;DHT22;7989;51.198;6.676;2022-07-23T02:02:53;18.30;99.90
15777;DHT22;7989;51.198;6.676;2022-07-23T02:05:20;18.30;99.90
15777;DHT22;7989;51.198;6.676;2022-07-23T02:07:47;18.30;99.90
15777;DHT22;7989;51.198;6.676;2022-07-23T02:10:14;18.20;99.90
15777;DHT22;7989;51.198;6.676;2022-07-23T02:12:40;18.20;99.90
15777;DHT22;7989;51.198;6.676;2022-07-23T02:15:09;18.20;99.90
15777;DHT22;7989;51.198;6.676;2022-07-23T02:17:36;18.10;99.90
15777;DHT22;7989;51.198;6.676;2022-07-23T02:20:04;18.10;99.90
15777;DHT22;7989;51.198;6.676;2022-07-23T02:22:31;18.10;99.90
15777;DHT22;7989;51.198;6.676;2022-07-23T02:24:58;18.10;99.90
15777;DHT22;7989;51.198;6.676;2022-07-23T02:27:25;18.00;99.90
15777;DHT22;7989;51.198;6.676;2022-07-23T02:29:53;18.10;99.90
15777;DHT22;7989;51.198;6.676;2022-07-23T02:32:21;18.10;99.90
15777;DHT22;7989;51.198;6.676;2022-07-23T02:34:48;18.10;99.90
15777;DHT22;7989;51.198;6.676;2022-07-23T02:37:15;18.10;99.90
15777;DHT22;7989;51.198;6.676;2022-07-23T02:39:43;18.10;99.90
15777;DHT22;7989;51.198;6.676;2022-07-23T02:42:10;18.10;99.90
15777;DHT22;7989;51.198;6.676;2022-07-23T02:44:36;18.00;99.90
15777;DHT22;7989;51.198;6.676;2022-07-23T02:47:03;18.00;99.90
15777;DHT22;7989;51.198;6.676;2022-07-23T02:49:32;18.00;99.90
15777;DHT22;7989;51.198;6.676;2022-07-23T02:51:59;18.00;99.90
15777;DHT22;7989;51.198;6.676;2022-07-23T02:54:25;18.00;99.90
15777;DHT22;7989;51.198;6.676;2022-07-23T02:56:52;17.90;99.90
15777;DHT22;7989;51.198;6.676;2022-07-23T02:59:19;17.90;99.90
15777;DHT22;7989;51.198;6.676;2022-07-23T03:01:46;17.80;99.90
15777;DHT22;7989;51.198;6.676;2022-07-23T03:04:13;17.80;99.90
15777;DHT22;7989;51.198;6.676;2022-07-23T03:06:41;17.80;99.90
15777;DHT22;7989;51.198;6.676;2022-07-23T03:09:08;17.80;99.90
15777;DHT22;7989;51.198;6.676;2022-07-23T03:11:35;17.80;99.90
15777;DHT22;7989;51.198;6.676;2022-07-23T03:14:01;17.70;99.90
15777;DHT22;7989;51.198;6.676;2022-07-23T03:16:28;17.70;99.90
15777;DHT22;7989;51.198;6.676;2022-07-23T03:18:55;17.70;99.90
15777;DHT22;7989;51.198;6.676;2022-07-23T03:21:22;17.60;99.90
15777;DHT22;7989;51.198;6.676;2022-07-23T03:23:50;17.60;99.90
15777;DHT22;7989;51.198;6.676;2022-07-23T03:26:17;17.60;99.90
15777;DHT22;7989;51.198;6.676;2022-07-23T03:28:44;17.60;99.90
15777;DHT22;7989;51.198;6.676;2022-07-23T03:31:11;17.50;99.90
15777;DHT22;7989;51.198;6.676;2022-07-23T03:33:37;17.50;99.90
15777;DHT22;7989;51.198;6.676;2022-07-23T03:36:05;17.40;99.90
15777;DHT22;7989;51.198;6.676;2022-07-23T03:38:32;17.40;99.90
15777;DHT22;7989;51.198;6.676;2022-07-23T03:41:00;17.30;99.90
15777;DHT22;7989;51.198;6.676;2022-07-23T03:43:27;17.30;99.90
15777;DHT22;7989;51.198;6.676;2022-07-23T03:45:53;17.30;99.90
15777;DHT22;7989;51.198;6.676;2022-07-23T03:48:20;17.40;99.90
15777;DHT22;7989;51.198;6.676;2022-07-23T03:50:47;17.40;99.90
15777;DHT22;7989;51.198;6.676;2022-07-23T03:53:14;17.40;99.90
15777;DHT22;7989;51.198;6.676;2022-07-23T03:55:41;17.40;99.90
15777;DHT22;7989;51.198;6.676;2022-07-23T03:58:09;17.40;99.90
15777;DHT22;7989;51.198;6.676;2022-07-23T04:00:36;17.40;99.90
15777;DHT22;7989;51.198;6.676;2022-07-23T04:03:02;17.30;99.90
15777;DHT22;7989;51.198;6.676;2022-07-23T04:05:29;17.20;99.90
15777;DHT22;7989;51.198;6.676;2022-07-23T04:07:56;17.20;99.90
15777;DHT22;7989;51.198;6.676;2022-07-23T04:10:23;17.20;99.90
15777;DHT22;7989;51.198;6.676;2022-07-23T04:12:50;17.20;99.90
15777;DHT22;7989;51.198;6.676;2022-07-23T04:15:18;17.10;99.90
15777;DHT22;7989;51.198;6.676;2022-07-23T04:17:45;17.10;99.90
15777;DHT22;7989;51.198;6.676;2022-07-23T04:20:12;17.10;99.90
15777;DHT22;7989;51.198;6.676;2022-07-23T04:22:39;17.20;99.90
15777;DHT22;7989;51.198;6.676;2022-07-23T04:25:06;17.10;99.90
15777;DHT22;7989;51.198;6.676;2022-07-23T04:27:33;17.10;99.90
15777;DHT22;7989;51.198;6.676;2022-07-23T04:30:00;17.10;99.90
15777;DHT22;7989;51.198;6.676;2022-07-23T04:32:28;17.20;99.90
15777;DHT22;7989;51.198;6.676;2022-07-23T04:34:55;17.20;99.90
15777;DHT22;7989;51.198;6.676;2022-07-23T04:37:22;17.30;99.90
15777;DHT22;7989;51.198;6.676;2022-07-23T04:39:49;17.30;99.90
15777;DHT22;7989;51.198;6.676;2022-07-23T04:42:16;17.30;99.90
15777;DHT22;7989;51.198;6.676;2022-07-23T04:44:42;17.40;99.90
15777;DHT22;7989;51.198;6.676;2022-07-23T04:47:09;17.40;99.90
15777;DHT22;7989;51.198;6.676;2022-07-23T04:49:37;17.40;99.90
15777;DHT22;7989;51.198;6.676;2022-07-23T04:52:04;17.40;99.90
15777;DHT22;7989;51.198;6.676;2022-07-23T04:54:31;17.50;99.90
15777;DHT22;7989;51.198;6.676;2022-07-23T04:56:58;17.50;99.90
15777;DHT22;7989;51.198;6.676;2022-07-23T04:59:25;17.50;99.90
15777;DHT22;7989;51.198;6.676;2022-07-23T05:01:52;17.50;99.90
15777;DHT22;7989;51.198;6.676;2022-07-23T05:04:18;17.60;99.90
15777;DHT22;7989;51.198;6.676;2022-07-23T05:06:47;17.60;99.90
15777;DHT22;7989;51.198;6.676;2022-07-23T05:09:13;17.60;99.90
15777;DHT22;7989;51.198;6.676;2022-07-23T05:11:40;17.70;99.90
15777;DHT22;7989;51.198;6.676;2022-07-23T05:14:07;17.70;99.90
15777;DHT22;7989;51.198;6.676;2022-07-23T05:16:34;17.70;99.90
15777;DHT22;7989;51.198;6.676;2022-07-23T05:19:01;17.80;99.90
15777;DHT22;7989;51.198;6.676;2022-07-23T05:21:27;17.80;99.90
15777;DHT22;7989;51.198;6.676;2022-07-23T05:23:56;17.90;99.90
15777;DHT22;7989;51.198;6.676;2022-07-23T05:26:22;17.90;99.90
15777;DHT22;7989;51.198;6.676;2022-07-23T05:28:50;18.00;99.90
15777;DHT22;7989;51.198;6.676;2022-07-23T05:31:17;18.00;99.90
15777;DHT22;7989;51.198;6.676;2022-07-23T05:33:44;18.00;99.90
15777;DHT22;7989;51.198;6.676;2022-07-23T05:36:10;18.10;99.90
15777;DHT22;7989;51.198;6.676;2022-07-23T05:38:37;18.20;99.90
15777;DHT22;7989;51.198;6.676;2022-07-23T05:41:05;18.20;99.90
15777;DHT22;7989;51.198;6.676;2022-07-23T05:43:32;18.20;99.90
15777;DHT22;7989;51.198;6.676;2022-07-23T05:45:59;18.30;99.90
15777;DHT22;7989;51.198;6.676;2022-07-23T05:48:26;18.30;99.90
15777;DHT22;7989;51.198;6.676;2022-07-23T05:50:53;18.40;99.90
15777;DHT22;7989;51.198;6.676;2022-07-23T05:53:20;18.50;99.90
15777;DHT22;7989;51.198;6.676;2022-07-23T05:55:47;18.60;99.90
15777;DHT22;7989;51.198;6.676;2022-07-23T05:58:15;18.60;99.90
15777;DHT22;7989;51.198;6.676;2022-07-23T06:00:42;18.60;99.90
15777;DHT22;7989;51.198;6.676;2022-07-23T06:03:09;18.70;99.90
15777;DHT22;7989;51.198;6.676;2022-07-23T06:05:36;18.70;99.90
15777;DHT22;7989;51.198;6.676;2022-07-23T06:08:03;18.70;99.90
15777;DHT22;7989;51.198;6.676;2022-07-23T06:10:30;18.80;99.90
15777;DHT22;7989;51.198;6.676;2022-07-23T06:12:56;18.90;99.90
15777;DHT22;7989;51.198;6.676;2022-07-23T06:15:25;19.10;99.90
15777;DHT22;7989;51.198;6.676;2022-07-23T06:17:52;19.20;99.90
15777;DHT22;7989;51.198;6.676;2022-07-23T06:20:19;19.30;99.90
15777;DHT22;7989;51.198;6.676;2022-07-23T06:22:45;19.40;99.90
15777;DHT22;7989;51.198;6.676;2022-07-23T06:25:12;19.90;99.90
15777;DHT22;7989;51.198;6.676;2022-07-23T06:27:39;20.00;99.90
15777;DHT22;7989;51.198;6.676;2022-07-23T06:30:07;19.70;99.90
15777;DHT22;7989;51.198;6.676;2022-07-23T06:32:37;19.80;99.90
15777;DHT22;7989;51.198;6.676;2022-07-23T06:35:04;19.80;99.90
15777;DHT22;7989;51.198;6.676;2022-07-23T06:37:31;19.90;99.90
15777;DHT22;7989;51.198;6.676;2022-07-23T06:39:58;19.80;99.90
15777;DHT22;7989;51.198;6.676;2022-07-23T06:42:25;19.70;99.90
15777;DHT22;7989;51.198;6.676;2022-07-23T06:44:52;20.80;99.90
15777;DHT22;7989;51.198;6.676;2022-07-23T06:47:18;21.30;99.90
15777;DHT22;7989;51.198;6.676;2022-07-23T06:49:47;20.70;99.90
15777;DHT22;7989;51.198;6.676;2022-07-23T06:52:14;20.30;99.90
15777;DHT22;7989;51.198;6.676;2022-07-23T06:54:41;20.20;99.90
15777;DHT22;7989;51.198;6.676;2022-07-23T06:57:07;20.40;99.90
15777;DHT22;7989;51.198;6.676;2022-07-23T06:59:34;20.80;99.90
15777;DHT22;7989;51.198;6.676;2022-07-23T07:02:05;20.80;99.90
15777;DHT22;7989;51.198;6.676;2022-07-23T07:04:32;21.00;99.90
15777;DHT22;7989;51.198;6.676;2022-07-23T07:07:01;21.10;99.90
15777;DHT22;7989;51.198;6.676;2022-07-23T07:09:27;21.10;99.90
15777;DHT22;7989;51.198;6.676;2022-07-23T07:11:54;21.00;99.90
15777;DHT22;7989;51.198;6.676;2022-07-23T07:14:22;21.20;99.90
15777;DHT22;7989;51.198;6.676;2022-07-23T07:16:49;21.30;99.90
15777;DHT22;7989;51.198;6.676;2022-07-23T07:19:16;21.60;99.90
15777;DHT22;7989;51.198;6.676;2022-07-23T07:21:42;21.60;99.90
15777;DHT22;7989;51.198;6.676;2022-07-23T07:24:10;21.50;99.90
15777;DHT22;7989;51.198;6.676;2022-07-23T07:26:37;21.40;99.90
15777;DHT22;7989;51.198;6.676;2022-07-23T07:29:05;21.60;99.90
15777;DHT22;7989;51.198;6.676;2022-07-23T07:31:32;21.60;99.90
15777;DHT22;7989;51.198;6.676;2022-07-23T07:33:59;21.70;99.90
15777;DHT22;7989;51.198;6.676;2022-07-23T07:36:26;21.80;99.90
15777;DHT22;7989;51.198;6.676;2022-07-23T07:38:53;22.30;99.90
15777;DHT22;7989;51.198;6.676;2022-07-23T07:41:21;22.00;99.90
15777;DHT22;7989;51.198;6.676;2022-07-23T07:43:49;21.90;99.90
15777;DHT22;7989;51.198;6.676;2022-07-23T07:46:16;21.90;99.90
15777;DHT22;7989;51.198;6.676;2022-07-23T07:48:43;22.70;99.90
15777;DHT22;7989;51.198;6.676;2022-07-23T07:51:10;22.90;99.90
15777;DHT22;7989;51.198;6.676;2022-07-23T07:53:37;22.30;99.90
15777;DHT22;7989;51.198;6.676;2022-07-23T07:56:04;21.50;99.90
15777;DHT22;7989;51.198;6.676;2022-07-23T07:58:32;21.40;99.90
15777;DHT22;7989;51.198;6.676;2022-07-23T08:00:59;21.20;99.90
15777;DHT22;7989;51.198;6.676;2022-07-23T08:03:28;21.50;99.90
15777;DHT22;7989;51.198;6.676;2022-07-23T08:05:55;21.50;99.90
15777;DHT22;7989;51.198;6.676;2022-07-23T08:08:21;21.70;99.90
15777;DHT22;7989;51.198;6.676;2022-07-23T08:10:48;22.30;99.90
15777;DHT22;7989;51.198;6.676;2022-07-23T08:13:16;23.40;99.90
15777;DHT22;7989;51.198;6.676;2022-07-23T08:15:44;23.40;99.90
15777;DHT22;7989;51.198;6.676;2022-07-23T08:18:11;23.20;99.90
15777;DHT22;7989;51.198;6.676;2022-07-23T08:20:38;23.70;99.90
15777;DHT22;7989;51.198;6.676;2022-07-23T08:23:06;25.60;99.90
15777;DHT22;7989;51.198;6.676;2022-07-23T08:25:35;28.10;99.90
15777;DHT22;7989;51.198;6.676;2022-07-23T08:28:05;28.50;99.90
15777;DHT22;7989;51.198;6.676;2022-07-23T08:30:33;31.10;99.90
15777;DHT22;7989;51.198;6.676;2022-07-23T08:33:03;32.30;99.90
15777;DHT22;7989;51.198;6.676;2022-07-23T08:35:31;30.80;99.90
15777;DHT22;7989;51.198;6.676;2022-07-23T08:37:59;28.80;99.90
15777;DHT22;7989;51.198;6.676;2022-07-23T08:40:28;26.70;99.90
15777;DHT22;7989;51.198;6.676;2022-07-23T08:42:56;26.50;99.90
15777;DHT22;7989;51.198;6.676;2022-07-23T08:45:25;25.00;99.90
15777;DHT22;7989;51.198;6.676;2022-07-23T08:47:53;24.70;99.90
15777;DHT22;7989;51.198;6.676;2022-07-23T08:50:23;23.70;99.90
15777;DHT22;7989;51.198;6.676;2022-07-23T08:52:52;22.80;99.90
15777;DHT22;7989;51.198;6.676;2022-07-23T08:55:21;22.80;99.90
15777;DHT22;7989;51.198;6.676;2022-07-23T08:57:49;23.50;99.90
15777;DHT22;7989;51.198;6.676;2022-07-23T09:00:17;24.10;99.90
15777;DHT22;7989;51.198;6.676;2022-07-23T09:02:45;23.80;99.90
15777;DHT22;7989;51.198;6.676;2022-07-23T09:05:13;23.90;99.90
15777;DHT22;7989;51.198;6.676;2022-07-23T09:10:55;24.60;99.90
15777;DHT22;7989;51.198;6.676;2022-07-23T09:13:28;24.00;99.90
15777;DHT22;7989;51.198;6.676;2022-07-23T09:15:56;23.90;99.90
15777;DHT22;7989;51.198;6.676;2022-07-23T09:18:31;24.00;99.90
15777;DHT22;7989;51.198;6.676;2022-07-23T09:21:13;24.30;99.90
15777;DHT22;7989;51.198;6.676;2022-07-23T09:23:42;24.50;99.90
15777;DHT22;7989;51.198;6.676;2022-07-23T09:26:28;27.70;99.90
15777;DHT22;7989;51.198;6.676;2022-07-23T09:29:05;32.20;99.90
15777;DHT22;7989;51.198;6.676;2022-07-23T09:31:34;36.50;99.90
15777;DHT22;7989;51.198;6.676;2022-07-23T09:34:09;38.40;92.30
15777;DHT22;7989;51.198;6.676;2022-07-23T09:36:36;39.70;82.90
15777;DHT22;7989;51.198;6.676;2022-07-23T09:39:04;40.70;75.40
15777;DHT22;7989;51.198;6.676;2022-07-23T09:41:37;36.80;73.60
15777;DHT22;7989;51.198;6.676;2022-07-23T09:44:13;33.00;81.20
15777;DHT22;7989;51.198;6.676;2022-07-23T09:46:41;31.50;84.70
15777;DHT22;7989;51.198;6.676;2022-07-23T09:49:17;29.50;88.60
15777;DHT22;7989;51.198;6.676;2022-07-23T09:51:55;27.90;92.00
15777;DHT22;7989;51.198;6.676;2022-07-23T09:54:25;27.20;94.30
15777;DHT22;7989;51.198;6.676;2022-07-23T09:56:55;30.40;95.00
15777;DHT22;7989;51.198;6.676;2022-07-23T09:59:24;33.50;90.00
15777;DHT22;7989;51.198;6.676;2022-07-23T10:01:52;35.30;85.00
15777;DHT22;7989;51.198;6.676;2022-07-23T10:04:21;35.10;83.40
15777;DHT22;7989;51.198;6.676;2022-07-23T10:06:54;35.70;81.30
15777;DHT22;7989;51.198;6.676;2022-07-23T10:09:27;35.30;82.50
15777;DHT22;7989;51.198;6.676;2022-07-23T10:11:57;35.60;82.00
15777;DHT22;7989;51.198;6.676;2022-07-23T10:14:29;34.10;82.60
15777;DHT22;7989;51.198;6.676;2022-07-23T10:16:58;31.90;83.00
15777;DHT22;7989;51.198;6.676;2022-07-23T10:19:27;29.50;88.00
15777;DHT22;7989;51.198;6.676;2022-07-23T10:21:58;28.10;90.60
15777;DHT22;7989;51.198;6.676;2022-07-23T10:24:36;27.70;91.70
15777;DHT22;7989;51.198;6.676;2022-07-23T10:27:20;27.30;93.00
15777;DHT22;7989;51.198;6.676;2022-07-23T10:29:50;27.10;94.00
15777;DHT22;7989;51.198;6.676;2022-07-23T10:32:28;26.60;95.30
15777;DHT22;7989;51.198;6.676;2022-07-23T10:35:09;26.10;95.20
15777;DHT22;7989;51.198;6.676;2022-07-23T10:37:40;25.50;96.30
15777;DHT22;7989;51.198;6.676;2022-07-23T10:40:13;25.30;97.40
15777;DHT22;7989;51.198;6.676;2022-07-23T10:42:41;25.70;97.50
15777;DHT22;7989;51.198;6.676;2022-07-23T10:45:25;25.60;98.20
15777;DHT22;7989;51.198;6.676;2022-07-23T10:47:52;25.90;98.50
15777;DHT22;7989;51.198;6.676;2022-07-23T10:50:21;26.00;98.30
15777;DHT22;7989;51.198;6.676;2022-07-23T10:53:07;26.20;98.60
15777;DHT22;7989;51.198;6.676;2022-07-23T10:55:42;26.70;97.90
15777;DHT22;7989;51.198;6.676;2022-07-23T10:58:12;27.00;96.70
15777;DHT22;7989;51.198;6.676;2022-07-23T11:00:43;26.30;96.30
15777;DHT22;7989;51.198;6.676;2022-07-23T11:03:29;26.00;97.20
15777;DHT22;7989;51.198;6.676;2022-07-23T11:05:58;25.90;97.70
15777;DHT22;7989;51.198;6.676;2022-07-23T11:08:25;25.50;98.50
15777;DHT22;7989;51.198;6.676;2022-07-23T11:10:54;26.10;97.10
15777;DHT22;7989;51.198;6.676;2022-07-23T11:13:36;26.60;96.80
15777;DHT22;7989;51.198;6.676;2022-07-23T11:16:14;26.60;97.50
15777;DHT22;7989;51.198;6.676;2022-07-23T11:19:04;26.90;97.20
15777;DHT22;7989;51.198;6.676;2022-07-23T11:21:45;27.00;95.90
15777;DHT22;7989;51.198;6.676;2022-07-23T11:24:17;26.30;97.10
15777;DHT22;7989;51.198;6.676;2022-07-23T11:26:48;26.10;97.20
15777;DHT22;7989;51.198;6.676;2022-07-23T11:32:34;25.90;97.10
15777;DHT22;7989;51.198;6.676;2022-07-23T11:35:27;25.70;98.50
15777;DHT22;7989;51.198;6.676;2022-07-23T11:38:04;25.80;98.10
15777;DHT22;7989;51.198;6.676;2022-07-23T11:40:31;25.90;98.70
15777;DHT22;7989;51.198;6.676;2022-07-23T11:43:00;26.40;98.70
15777;DHT22;7989;51.198;6.676;2022-07-23T11:45:33;26.20;97.70
15777;DHT22;7989;51.198;6.676;2022-07-23T11:48:02;26.30;97.70
15777;DHT22;7989;51.198;6.676;2022-07-23T11:50:29;26.50;98.70
15777;DHT22;7989;51.198;6.676;2022-07-23T11:52:56;27.50;96.90
15777;DHT22;7989;51.198;6.676;2022-07-23T11:55:23;26.90;96.20
15777;DHT22;7989;51.198;6.676;2022-07-23T11:57:52;26.40;97.10
15777;DHT22;7989;51.198;6.676;2022-07-23T12:00:22;26.30;98.20
15777;DHT22;7989;51.198;6.676;2022-07-23T12:02:50;26.20;97.80
15777;DHT22;7989;51.198;6.676;2022-07-23T12:05:20;26.20;97.40
15777;DHT22;7989;51.198;6.676;2022-07-23T12:07:49;25.70;97.80
15777;DHT22;7989;51.198;6.676;2022-07-23T12:10:17;25.30;98.80
15777;DHT22;7989;51.198;6.676;2022-07-23T12:12:46;25.60;98.80
15777;DHT22;7989;51.198;6.676;2022-07-23T12:15:16;26.20;98.60
15777;DHT22;7989;51.198;6.676;2022-07-23T12:17:46;26.70;97.80
15777;DHT22;7989;51.198;6.676;2022-07-23T12:20:15;26.50;96.60
15777;DHT22;7989;51.198;6.676;2022-07-23T12:22:46;25.90;98.00
15777;DHT22;7989;51.198;6.676;2022-07-23T12:25:15;25.20;98.40
15777;DHT22;7989;51.198;6.676;2022-07-23T12:27:43;25.00;99.80
15777;DHT22;7989;51.198;6.676;2022-07-23T12:30:18;25.20;99.90
15777;DHT22;7989;51.198;6.676;2022-07-23T12:32:46;25.70;98.20
15777;DHT22;7989;51.198;6.676;2022-07-23T12:35:13;26.10;97.90
15777;DHT22;7989;51.198;6.676;2022-07-23T12:37:44;26.30;97.60
15777;DHT22;7989;51.198;6.676;2022-07-23T12:40:23;26.60;96.80
15777;DHT22;7989;51.198;6.676;2022-07-23T12:42:52;26.90;96.80
15777;DHT22;7989;51.198;6.676;2022-07-23T12:45:19;27.00;97.10
15777;DHT22;7989;51.198;6.676;2022-07-23T12:47:55;27.30;95.80
15777;DHT22;7989;51.198;6.676;2022-07-23T12:50:39;27.20;96.30
15777;DHT22;7989;51.198;6.676;2022-07-23T12:53:10;28.00;95.00
15777;DHT22;7989;51.198;6.676;2022-07-23T12:55:38;27.70;95.30
15777;DHT22;7989;51.198;6.676;2022-07-23T12:58:11;27.50;93.90
15777;DHT22;7989;51.198;6.676;2022-07-23T13:00:57;27.20;94.10
15777;DHT22;7989;51.198;6.676;2022-07-23T13:03:26;27.10;94.70
15777;DHT22;7989;51.198;6.676;2022-07-23T13:05:54;27.50;93.90
15777;DHT22;7989;51.198;6.676;2022-07-23T13:08:23;27.60;94.50
15777;DHT22;7989;51.198;6.676;2022-07-23T13:10:50;28.10;92.90
15777;DHT22;7989;51.198;6.676;2022-07-23T13:13:21;28.00;93.30
15777;DHT22;7989;51.198;6.676;2022-07-23T13:15:49;28.80;91.30
15777;DHT22;7989;51.198;6.676;2022-07-23T13:18:16;29.20;90.80
15777;DHT22;7989;51.198;6.676;2022-07-23T13:20:43;29.30;90.20
15777;DHT22;7989;51.198;6.676;2022-07-23T13:23:10;29.80;90.20
15777;DHT22;7989;51.198;6.676;2022-07-23T13:25:39;30.30;87.70
15777;DHT22;7989;51.198;6.676;2022-07-23T13:28:06;30.20;86.90
15777;DHT22;7989;51.198;6.676;2022-07-23T13:30:33;29.10;87.70
15777;DHT22;7989;51.198;6.676;2022-07-23T13:33:02;29.20;89.70
15777;DHT22;7989;51.198;6.676;2022-07-23T13:35:29;29.70;88.70
15777;DHT22;7989;51.198;6.676;2022-07-23T13:37:56;29.60;90.00
15777;DHT22;7989;51.198;6.676;2022-07-23T13:40:23;29.80;89.80
15777;DHT22;7989;51.198;6.676;2022-07-23T13:42:51;29.30;87.50
15777;DHT22;7989;51.198;6.676;2022-07-23T13:45:18;28.10;89.80
15777;DHT22;7989;51.198;6.676;2022-07-23T13:47:45;27.60;90.90
15777;DHT22;7989;51.198;6.676;2022-07-23T13:50:12;28.10;90.20
15777;DHT22;7989;51.198;6.676;2022-07-23T13:52:41;28.00;91.30
15777;DHT22;7989;51.198;6.676;2022-07-23T13:55:08;28.60;91.10
15777;DHT22;7989;51.198;6.676;2022-07-23T13:57:35;28.80;90.80
15777;DHT22;7989;51.198;6.676;2022-07-23T14:00:06;28.40;90.60
15777;DHT22;7989;51.198;6.676;2022-07-23T14:02:35;28.80;90.80
15777;DHT22;7989;51.198;6.676;2022-07-23T14:05:03;29.20;91.40
15777;DHT22;7989;51.198;6.676;2022-07-23T14:07:30;29.70;90.70
15777;DHT22;7989;51.198;6.676;2022-07-23T14:09:57;29.00;90.10
15777;DHT22;7989;51.198;6.676;2022-07-23T14:12:24;28.70;91.00
15777;DHT22;7989;51.198;6.676;2022-07-23T14:14:50;28.80;90.80
15777;DHT22;7989;51.198;6.676;2022-07-23T14:17:19;29.10;90.40
15777;DHT22;7989;51.198;6.676;2022-07-23T14:19:46;29.10;90.30
15777;DHT22;7989;51.198;6.676;2022-07-23T14:22:13;29.10;89.70
15777;DHT22;7989;51.198;6.676;2022-07-23T14:24:40;29.00;91.20
15777;DHT22;7989;51.198;6.676;2022-07-23T14:27:07;28.80;90.50
15777;DHT22;7989;51.198;6.676;2022-07-23T14:29:34;28.80;90.40
15777;DHT22;7989;51.198;6.676;2022-07-23T14:32:02;28.40;90.50
15777;DHT22;7989;51.198;6.676;2022-07-23T14:34:30;28.00;91.40
15777;DHT22;7989;51.198;6.676;2022-07-23T14:36:58;28.20;91.70
15777;DHT22;7989;51.198;6.676;2022-07-23T14:39:25;28.40;91.30
15777;DHT22;7989;51.198;6.676;2022-07-23T14:41:52;27.70;91.00
15777;DHT22;7989;51.198;6.676;2022-07-23T14:44:19;27.30;91.60
15777;DHT22;7989;51.198;6.676;2022-07-23T14:46:46;27.50;92.40
15777;DHT22;7989;51.198;6.676;2022-07-23T14:49:13;27.60;91.70
15777;DHT22;7989;51.198;6.676;2022-07-23T14:51:41;27.50;91.80
15777;DHT22;7989;51.198;6.676;2022-07-23T14:54:09;27.80;92.10
15777;DHT22;7989;51.198;6.676;2022-07-23T14:56:36;27.90;91.80
15777;DHT22;7989;51.198;6.676;2022-07-23T14:59:03;28.10;91.80
15777;DHT22;7989;51.198;6.676;2022-07-23T15:01:29;27.90;91.30
15777;DHT22;7989;51.198;6.676;2022-07-23T15:03:56;27.70;91.80
15777;DHT22;7989;51.198;6.676;2022-07-23T15:06:23;27.90;92.60
15777;DHT22;7989;51.198;6.676;2022-07-23T15:08:52;27.90;91.30
15777;DHT22;7989;51.198;6.676;2022-07-23T15:11:19;27.40;91.80
15777;DHT22;7989;51.198;6.676;2022-07-23T15:13:46;27.10;91.90
15777;DHT22;7989;51.198;6.676;2022-07-23T15:16:13;27.10;92.30
15777;DHT22;7989;51.198;6.676;2022-07-23T15:18:40;27.40;92.70
15777;DHT22;7989;51.198;6.676;2022-07-23T15:21:07;27.80;92.50
15777;DHT22;7989;51.198;6.676;2022-07-23T15:23:33;27.80;92.40
15777;DHT22;7989;51.198;6.676;2022-07-23T15:26:03;28.00;92.30
15777;DHT22;7989;51.198;6.676;2022-07-23T15:28:30;27.70;91.80
15777;DHT22;7989;51.198;6.676;2022-07-23T15:30:57;27.20;92.00
15777;DHT22;7989;51.198;6.676;2022-07-23T15:33:24;27.00;92.20
15777;DHT22;7989;51.198;6.676;2022-07-23T15:35:51;26.90;93.00
15777;DHT22;7989;51.198;6.676;2022-07-23T15:38:20;26.70;92.90
15777;DHT22;7989;51.198;6.676;2022-07-23T15:40:47;26.80;93.10
15777;DHT22;7989;51.198;6.676;2022-07-23T15:43:16;27.30;93.30
15777;DHT22;7989;51.198;6.676;2022-07-23T15:45:43;27.60;93.20
15777;DHT22;7989;51.198;6.676;2022-07-23T15:48:12;27.70;93.50
15777;DHT22;7989;51.198;6.676;2022-07-23T15:50:39;27.60;93.20
15777;DHT22;7989;51.198;6.676;2022-07-23T15:53:06;27.60;93.20
15777;DHT22;7989;51.198;6.676;2022-07-23T15:55:33;27.80;92.40
15777;DHT22;7989;51.198;6.676;2022-07-23T15:58:00;28.00;92.60